createdAt,value
2022-11-19T00:00:59.419Z,73.57
2022-11-19T00:01:59.458Z,74.20
2022-11-19T00:02:59.384Z,74.30
2022-11-19T00:03:59.378Z,74.62
2022-11-19T00:04:59.380Z,74.73
2022-11-19T00:05:59.381Z,74.62
2022-11-19T00:06:59.425Z,73.15
2022-11-19T00:07:59.350Z,72.63
2022-11-19T00:08:59.416Z,72.73
2022-11-19T00:09:59.314Z,71.99
2022-11-19T00:10:59.305Z,70.53
2022-11-19T00:11:59.297Z,72.13
2022-11-19T00:12:59.293Z,71.68
2022-11-19T00:13:59.270Z,71.29
2022-11-19T00:14:59.254Z,71.40
2022-11-19T00:15:59.253Z,70.35
2022-11-19T00:16:59.254Z,69.19
2022-11-19T00:17:59.229Z,69.82
2022-11-19T00:18:59.217Z,68.38
2022-11-19T00:19:59.208Z,68.59
2022-11-19T00:20:59.197Z,66.49
2022-11-19T00:21:59.180Z,65.55
2022-11-19T00:22:59.189Z,67.44
2022-11-19T00:23:59.155Z,67.76
2022-11-19T00:24:59.151Z,64.60
2022-11-19T00:25:59.155Z,65.02
2022-11-19T00:26:59.119Z,64.39
2022-11-19T00:27:59.129Z,65.02
2022-11-19T00:28:59.118Z,65.86
2022-11-19T00:29:59.096Z,65.34
2022-11-19T00:30:59.076Z,62.08
2022-11-19T00:31:59.080Z,64.29
2022-11-19T00:32:59.058Z,64.18
2022-11-19T00:33:59.045Z,63.55
2022-11-19T00:34:59.036Z,65.76
2022-11-19T00:35:59.026Z,65.12
2022-11-19T00:36:59.011Z,66.70
2022-11-19T00:37:59.005Z,66.28
2022-11-19T00:38:59.053Z,64.81
2022-11-19T00:39:58.977Z,66.07
2022-11-19T00:40:58.967Z,64.07
2022-11-19T00:41:58.962Z,64.29
2022-11-19T00:42:58.942Z,64.60
2022-11-19T00:43:58.933Z,65.02
2022-11-19T00:44:58.927Z,63.76
2022-11-19T00:45:58.910Z,65.34
2022-11-19T00:46:58.896Z,66.07
2022-11-19T00:47:58.895Z,66.07
2022-11-19T00:48:58.879Z,66.91
2022-11-19T00:49:58.868Z,66.49
2022-11-19T00:50:58.855Z,67.23
2022-11-19T00:51:58.845Z,67.76
2022-11-19T00:52:58.832Z,68.17
2022-11-19T00:53:58.823Z,68.07
2022-11-19T00:54:58.831Z,67.96
2022-11-19T00:55:58.798Z,67.65
2022-11-19T00:56:58.785Z,69.01
2022-11-19T00:57:58.780Z,67.86
2022-11-19T00:58:58.767Z,67.23
2022-11-19T00:59:58.758Z,67.12
2022-11-19T01:00:58.814Z,68.28
2022-11-19T01:01:58.736Z,67.12
2022-11-19T01:02:58.722Z,66.49
2022-11-19T01:03:58.710Z,67.12
2022-11-19T01:04:58.704Z,67.12
2022-11-19T01:05:58.692Z,66.70
2022-11-19T01:06:58.758Z,65.23
2022-11-19T01:07:58.668Z,66.17
2022-11-19T01:08:58.654Z,66.10
2022-11-19T01:09:58.646Z,65.26
2022-11-19T01:10:58.658Z,65.16
2022-11-19T01:11:58.637Z,65.68
2022-11-19T01:12:58.614Z,65.26
2022-11-19T01:13:58.602Z,66.00
2022-11-19T01:14:58.591Z,65.89
2022-11-19T01:15:58.580Z,65.37
2022-11-19T01:16:58.571Z,66.42
2022-11-19T01:17:58.560Z,66.10
2022-11-19T01:18:58.547Z,68.20
2022-11-19T01:19:58.619Z,68.28
2022-11-19T01:20:58.528Z,68.70
2022-11-19T01:21:58.514Z,69.23
2022-11-19T01:22:58.507Z,69.23
2022-11-19T01:23:58.492Z,68.70
2022-11-19T01:24:58.482Z,70.17
2022-11-19T01:25:58.470Z,68.52
2022-11-19T01:26:58.483Z,68.94
2022-11-19T01:27:58.460Z,69.15
2022-11-19T01:28:58.443Z,69.57
2022-11-19T01:29:58.425Z,68.10
2022-11-19T01:30:58.415Z,69.36
2022-11-19T01:31:58.405Z,69.78
2022-11-19T01:32:58.396Z,69.46
2022-11-19T01:33:58.382Z,68.31
2022-11-19T01:34:58.371Z,68.41
2022-11-19T01:35:58.367Z,68.31
2022-11-19T01:36:58.350Z,68.20
2022-11-19T01:37:58.340Z,67.79
2022-11-19T01:38:58.350Z,68.41
2022-11-19T01:39:58.320Z,70.31
2022-11-19T01:40:58.316Z,70.83
2022-11-19T01:41:58.298Z,68.10
2022-11-19T01:42:58.305Z,68.94
2022-11-19T01:43:58.274Z,70.73
2022-11-19T01:47:15.350Z,72.41
2022-11-19T01:48:15.341Z,69.36
2022-11-19T01:49:15.327Z,71.78
2022-11-19T01:50:15.322Z,71.67
2022-11-19T01:51:15.306Z,71.88
2022-11-19T01:52:15.298Z,71.04
2022-11-19T01:53:15.284Z,72.20
2022-11-19T01:54:15.276Z,72.72
2022-11-19T01:55:15.269Z,71.67
2022-11-19T01:56:15.257Z,73.88
2022-11-19T01:57:15.245Z,72.83
2022-11-19T01:58:15.263Z,72.93
2022-11-19T01:59:15.223Z,71.98
2022-11-19T02:00:15.211Z,72.75
2022-11-19T02:01:15.290Z,71.91
2022-11-19T02:02:15.190Z,69.71
2022-11-19T02:03:15.178Z,67.92
2022-11-19T02:04:15.174Z,68.34
2022-11-19T02:05:15.165Z,67.95
2022-11-19T02:06:15.149Z,69.18
2022-11-19T02:07:15.171Z,70.02
2022-11-19T02:08:15.128Z,69.71
2022-11-19T02:09:15.120Z,71.70
2022-11-19T02:10:15.108Z,71.91
2022-11-19T02:11:15.094Z,71.81
2022-11-19T02:12:15.086Z,71.28
2022-11-19T02:13:15.073Z,70.65
2022-11-19T02:14:15.086Z,67.63
2022-11-19T02:15:15.055Z,69.39
2022-11-19T02:16:15.046Z,69.32
2022-11-19T02:17:15.033Z,69.39
2022-11-19T02:18:15.024Z,71.53
2022-11-19T02:19:15.014Z,68.48
2022-11-19T02:20:15.002Z,71.53
2022-11-19T02:21:14.993Z,69.84
2022-11-19T02:22:14.981Z,64.90
2022-11-19T02:23:14.968Z,66.79
2022-11-19T02:24:14.958Z,66.79
2022-11-19T02:25:14.945Z,66.06
2022-11-19T02:26:14.937Z,65.11
2022-11-19T02:27:14.924Z,64.29
2022-11-19T02:28:14.916Z,63.77
2022-11-19T02:29:14.908Z,63.14
2022-11-19T02:30:14.942Z,62.93
2022-11-19T02:31:14.883Z,63.43
2022-11-19T02:32:14.876Z,62.51
2022-11-19T02:33:14.861Z,61.46
2022-11-19T02:34:14.851Z,63.77
2022-11-19T02:35:14.840Z,64.09
2022-11-19T02:36:14.833Z,63.67
2022-11-19T02:37:14.817Z,62.82
2022-11-19T02:38:14.809Z,59.56
2022-11-19T02:39:14.796Z,63.67
2022-11-19T02:40:14.789Z,64.40
2022-11-19T02:41:14.776Z,64.19
2022-11-19T02:42:14.765Z,61.56
2022-11-19T02:43:14.753Z,63.88
2022-11-19T02:44:14.744Z,61.35
2022-11-19T02:45:14.733Z,61.14
2022-11-19T02:46:14.748Z,59.88
2022-11-19T02:47:14.712Z,61.56
2022-11-19T02:48:14.702Z,63.14
2022-11-19T02:49:14.689Z,63.88
2022-11-19T02:50:14.683Z,64.29
2022-11-19T02:51:14.668Z,62.82
2022-11-19T02:52:14.661Z,65.35
2022-11-19T02:53:14.654Z,65.88
2022-11-19T02:54:14.638Z,65.88
2022-11-19T02:55:14.684Z,65.56
2022-11-19T02:56:14.616Z,66.82
2022-11-19T02:57:14.603Z,64.29
2022-11-19T02:58:14.593Z,65.45
2022-11-19T02:59:14.580Z,66.51
2022-11-19T03:00:14.573Z,64.19
2022-11-19T03:01:14.683Z,65.45
2022-11-19T03:02:14.571Z,65.98
2022-11-19T03:03:14.542Z,66.30
2022-11-19T03:04:14.531Z,65.88
2022-11-19T03:05:14.515Z,65.88
2022-11-19T03:06:14.514Z,66.01
2022-11-19T03:07:14.561Z,65.48
2022-11-19T03:08:14.487Z,62.22
2022-11-19T03:09:14.473Z,64.54
2022-11-19T03:10:14.471Z,63.06
2022-11-19T03:11:14.454Z,62.12
2022-11-19T03:12:14.443Z,61.17
2022-11-19T03:13:14.430Z,60.93
2022-11-19T03:14:14.423Z,64.29
2022-11-19T03:15:14.409Z,65.38
2022-11-19T03:16:14.400Z,65.35
2022-11-19T03:17:14.388Z,67.35
2022-11-19T03:18:14.402Z,67.77
2022-11-19T03:19:14.369Z,67.46
2022-11-19T03:20:14.360Z,67.88
2022-11-19T03:21:14.344Z,67.98
2022-11-19T03:22:14.337Z,69.35
2022-11-19T03:23:14.324Z,70.19
2022-11-19T03:24:14.316Z,69.98
2022-11-19T03:25:14.302Z,66.96
2022-11-19T03:26:14.294Z,69.49
2022-11-19T03:27:14.279Z,67.69
2022-11-19T03:28:14.270Z,67.46
2022-11-19T03:29:14.258Z,68.82
2022-11-19T03:30:14.255Z,70.12
2022-11-19T03:31:14.238Z,69.27
2022-11-19T03:32:14.229Z,68.12
2022-11-19T03:33:14.216Z,67.80
2022-11-19T03:34:14.229Z,67.49
2022-11-19T03:35:14.195Z,66.82
2022-11-19T03:36:14.184Z,68.72
2022-11-19T03:37:14.174Z,71.14
2022-11-19T03:38:14.164Z,71.03
2022-11-19T03:39:14.153Z,69.45
2022-11-19T03:40:14.143Z,71.59
2022-11-19T03:41:14.134Z,68.54
2022-11-19T03:42:14.125Z,69.17
2022-11-19T03:43:14.110Z,68.01
2022-11-19T03:44:14.101Z,69.14
2022-11-19T03:45:14.089Z,69.14
2022-11-19T03:46:14.080Z,70.40
2022-11-19T03:47:14.067Z,72.08
2022-11-19T03:48:14.056Z,71.98
2022-11-19T03:49:14.046Z,71.98
2022-11-19T03:50:14.058Z,73.56
2022-11-19T03:51:14.023Z,74.40
2022-11-19T03:52:14.013Z,74.51
2022-11-19T03:53:14.003Z,75.13
2022-11-19T03:54:13.992Z,72.92
2022-11-19T03:55:13.983Z,72.72
2022-11-19T03:56:13.972Z,72.86
2022-11-19T03:57:13.961Z,70.51
2022-11-19T03:58:13.946Z,72.92
2022-11-19T03:59:13.943Z,72.54
2022-11-19T04:00:13.930Z,73.07
2022-11-19T04:01:13.916Z,72.54
2022-11-19T04:02:13.920Z,70.22
2022-11-19T04:03:13.899Z,70.54
2022-11-19T04:04:13.881Z,70.75
2022-11-19T04:05:13.872Z,72.19
2022-11-19T04:06:15.389Z,71.48
2022-11-19T04:07:13.938Z,71.28
2022-11-19T04:08:13.842Z,72.40
2022-11-19T04:09:14.131Z,72.72
2022-11-19T04:10:13.820Z,70.93
2022-11-19T04:11:13.810Z,72.08
2022-11-19T04:12:13.798Z,74.40
2022-11-19T04:13:13.789Z,74.93
2022-11-19T04:14:13.775Z,73.03
2022-11-19T04:15:13.773Z,73.88
2022-11-19T04:16:13.756Z,74.71
2022-11-19T04:17:13.744Z,75.45
2022-11-19T04:18:13.730Z,74.01
2022-11-19T04:19:13.723Z,75.45
2022-11-19T04:20:13.712Z,75.45
2022-11-19T04:21:13.700Z,75.67
2022-11-19T04:22:13.711Z,75.77
2022-11-19T04:23:13.681Z,76.51
2022-11-19T04:24:13.666Z,76.19
2022-11-19T04:25:13.658Z,75.59
2022-11-19T04:26:13.645Z,72.96
2022-11-19T04:27:13.639Z,72.12
2022-11-19T04:28:13.629Z,74.01
2022-11-19T04:29:13.615Z,74.54
2022-11-19T04:30:13.606Z,72.44
2022-11-19T04:31:17.895Z,72.33
2022-11-19T04:32:13.588Z,73.17
2022-11-19T04:33:13.574Z,72.96
2022-11-19T04:34:13.560Z,71.06
2022-11-19T04:35:13.555Z,72.96
2022-11-19T04:36:13.541Z,75.70
2022-11-19T04:37:13.535Z,74.33
2022-11-19T04:38:13.541Z,73.63
2022-11-19T04:39:13.510Z,73.31
2022-11-19T04:40:13.496Z,72.47
2022-11-19T04:41:13.489Z,70.18
2022-11-19T04:42:13.477Z,66.81
2022-11-19T04:43:13.464Z,67.10
2022-11-19T04:44:13.455Z,67.65
2022-11-19T04:45:13.448Z,64.46
2022-11-19T04:46:13.430Z,65.94
2022-11-19T04:47:13.422Z,65.65
2022-11-19T04:48:13.411Z,69.23
2022-11-19T04:49:13.400Z,66.07
2022-11-19T04:50:13.389Z,66.10
2022-11-19T04:51:13.380Z,65.47
2022-11-19T04:52:13.368Z,66.00
2022-11-19T04:53:13.356Z,64.76
2022-11-19T04:54:13.382Z,64.55
2022-11-19T04:55:13.386Z,65.81
2022-11-19T04:56:13.323Z,65.31
2022-11-19T04:57:13.317Z,63.63
2022-11-19T05:03:08.745Z,53.92
2022-11-19T05:04:08.734Z,52.55
2022-11-19T05:05:08.728Z,52.76
2022-11-19T05:06:08.713Z,55.42
2022-11-19T05:07:08.798Z,49.62
2022-11-19T05:08:08.693Z,55.21
2022-11-19T05:09:08.685Z,53.84
2022-11-19T05:10:08.693Z,54.68
2022-11-19T05:11:08.659Z,49.51
2022-11-19T05:12:08.647Z,50.04
2022-11-19T05:13:08.637Z,49.19
2022-11-19T05:14:08.625Z,49.83
2022-11-19T05:15:08.627Z,50.35
2022-11-19T05:16:08.605Z,51.54
2022-11-19T05:17:08.599Z,49.74
2022-11-19T05:18:08.585Z,51.54
2022-11-19T05:19:08.584Z,48.47
2022-11-19T05:20:08.563Z,47.74
2022-11-19T05:21:08.556Z,49.11
2022-11-19T05:22:08.541Z,45.42
2022-11-19T05:23:08.530Z,44.57
2022-11-19T05:24:08.519Z,46.26
2022-11-19T05:25:08.521Z,46.59
2022-11-19T05:26:08.528Z,45.33
2022-11-19T05:27:08.496Z,43.93
2022-11-19T05:28:08.479Z,43.19
2022-11-19T05:29:08.470Z,39.81
2022-11-19T05:30:08.459Z,36.33
2022-11-19T05:31:08.449Z,39.27
2022-11-19T05:32:08.433Z,39.07
2022-11-19T05:33:08.434Z,37.90
2022-11-19T05:34:08.412Z,32.41
2022-11-19T05:35:08.403Z,33.67
2022-11-19T05:36:08.391Z,35.98
2022-11-19T05:37:08.380Z,37.77
2022-11-19T05:38:08.370Z,40.11
2022-11-19T05:39:08.359Z,41.49
2022-11-19T05:40:08.346Z,38.00
2022-11-19T05:41:08.340Z,41.49
2022-11-19T05:42:08.352Z,39.37
2022-11-19T05:43:08.316Z,43.19
2022-11-19T05:44:08.306Z,36.52
2022-11-19T05:45:08.294Z,39.06
2022-11-19T05:46:08.283Z,39.69
2022-11-19T05:47:08.278Z,34.73
2022-11-19T05:48:08.263Z,39.27
2022-11-19T05:49:08.252Z,39.48
2022-11-19T05:50:08.239Z,37.90
2022-11-19T05:51:08.234Z,40.96
2022-11-19T05:52:08.223Z,40.43
2022-11-19T05:53:08.215Z,40.24
2022-11-19T05:54:08.258Z,40.77
2022-11-19T05:55:08.193Z,39.39
2022-11-19T05:56:08.187Z,37.81
2022-11-19T05:57:08.169Z,39.39
2022-11-19T05:58:08.181Z,38.87
2022-11-19T05:59:08.146Z,42.14
2022-11-19T06:00:08.134Z,39.81
2022-11-19T06:01:08.124Z,42.14
2022-11-19T06:02:08.115Z,41.10
2022-11-19T06:03:08.160Z,43.43
2022-11-19T06:04:08.092Z,42.47
2022-11-19T06:05:08.084Z,39.94
2022-11-19T06:06:08.071Z,39.51
2022-11-19T06:07:08.112Z,37.49
2022-11-19T06:08:08.059Z,38.23
2022-11-19T06:09:08.038Z,37.92
2022-11-19T06:10:08.030Z,39.62
2022-11-19T06:11:08.022Z,39.41
2022-11-19T06:12:08.003Z,41.42
2022-11-19T06:13:07.996Z,41.97
2022-11-19T06:14:08.011Z,41.22
2022-11-19T06:15:07.977Z,39.11
2022-11-19T06:16:07.967Z,39.22
2022-11-19T06:17:07.959Z,40.17
2022-11-19T06:18:07.941Z,41.65
2022-11-19T06:19:07.931Z,41.65
2022-11-19T06:20:07.920Z,40.80
2022-11-19T06:21:12.004Z,40.61
2022-11-19T06:22:07.900Z,40.40
2022-11-19T06:23:07.892Z,41.12
2022-11-19T06:24:07.876Z,39.43
2022-11-19T06:25:07.895Z,38.69
2022-11-19T06:26:07.856Z,39.32
2022-11-19T06:27:07.848Z,41.33
2022-11-19T06:28:07.837Z,38.28
2022-11-19T06:29:07.829Z,39.98
2022-11-19T06:30:07.843Z,41.67
2022-11-19T06:31:07.806Z,36.06
2022-11-19T06:32:07.792Z,40.40
2022-11-19T06:33:07.782Z,39.23
2022-11-19T06:34:07.780Z,42.72
2022-11-19T06:35:07.760Z,39.66
2022-11-19T06:36:07.750Z,38.71
2022-11-19T06:37:07.740Z,38.39
2022-11-19T06:38:07.729Z,37.96
2022-11-19T06:39:07.718Z,37.76
2022-11-19T06:40:07.708Z,36.89
2022-11-19T06:41:07.700Z,39.45
2022-11-19T06:42:07.687Z,39.76
2022-11-19T06:43:07.681Z,39.45
2022-11-19T06:44:07.667Z,41.56
2022-11-19T06:45:07.661Z,42.30
2022-11-19T06:46:07.674Z,42.00
2022-11-19T06:47:07.636Z,43.49
2022-11-19T06:48:07.624Z,42.32
2022-11-19T06:49:07.613Z,40.31
2022-11-19T06:50:07.607Z,40.20
2022-11-19T06:51:07.602Z,41.58
2022-11-19T06:52:07.587Z,41.58
2022-11-19T06:53:07.570Z,41.47
2022-11-19T06:54:07.563Z,40.84
2022-11-19T06:55:07.556Z,42.00
2022-11-19T06:56:07.538Z,42.22
2022-11-19T06:57:07.531Z,41.79
2022-11-19T06:58:07.516Z,45.07
2022-11-19T06:59:07.511Z,43.61
2022-11-19T07:00:07.497Z,42.64
2022-11-19T07:01:07.488Z,44.35
2022-11-19T07:02:07.616Z,42.64
2022-11-19T07:03:07.465Z,42.64
2022-11-19T07:04:07.456Z,42.54
2022-11-19T07:05:07.441Z,41.90
2022-11-19T07:06:07.433Z,41.47
2022-11-19T07:07:07.558Z,43.06
2022-11-19T07:08:07.411Z,40.95
2022-11-19T07:09:07.406Z,40.84
2022-11-19T07:10:07.392Z,40.95
2022-11-19T07:11:07.377Z,40.63
2022-11-19T07:12:07.371Z,38.71
2022-11-19T07:13:07.359Z,39.13
2022-11-19T07:14:07.362Z,39.13
2022-11-19T07:15:07.335Z,39.03
2022-11-19T07:16:07.325Z,37.96
2022-11-19T07:17:07.315Z,37.65
2022-11-19T07:18:07.328Z,38.18
2022-11-19T07:19:07.294Z,40.40
2022-11-19T07:20:07.285Z,38.60
2022-11-19T07:21:07.274Z,40.19
2022-11-19T07:22:07.263Z,39.03
2022-11-19T07:23:07.252Z,38.49
2022-11-19T07:24:07.242Z,40.92
2022-11-19T07:25:07.229Z,38.49
2022-11-19T07:26:07.224Z,39.87
2022-11-19T07:27:07.207Z,38.81
2022-11-19T07:28:07.201Z,38.39
2022-11-19T07:29:07.189Z,36.06
2022-11-19T07:30:07.178Z,36.25
2022-11-19T07:31:07.164Z,34.67
2022-11-19T07:32:07.158Z,32.77
2022-11-19T07:33:07.145Z,34.04
2022-11-19T07:34:07.157Z,34.56
2022-11-19T07:35:07.124Z,35.52
2022-11-19T07:36:07.113Z,34.04
2022-11-19T07:37:07.103Z,33.39
2022-11-19T07:38:07.096Z,33.18
2022-11-19T07:39:07.092Z,32.23
2022-11-19T07:40:07.077Z,34.23
2022-11-19T07:41:07.058Z,35.71
2022-11-19T07:42:07.051Z,35.50
2022-11-19T07:43:07.040Z,33.92
2022-11-19T07:44:07.029Z,35.19
2022-11-19T07:45:07.067Z,34.55
2022-11-19T07:46:07.007Z,34.02
2022-11-19T07:47:07.011Z,34.55
2022-11-19T07:48:07.026Z,33.60
2022-11-19T07:49:06.983Z,35.39
2022-11-19T07:50:07.190Z,33.81
2022-11-19T07:51:06.953Z,35.29
2022-11-19T07:52:06.942Z,33.48
2022-11-19T07:53:06.933Z,28.52
2022-11-19T07:54:06.922Z,33.37
2022-11-19T07:55:07.220Z,30.30
2022-11-19T07:56:06.903Z,30.82
2022-11-19T07:57:06.888Z,26.28
2022-11-19T07:58:06.879Z,31.02
2022-11-19T07:59:06.872Z,31.67
2022-11-19T08:00:07.216Z,31.35
2022-11-19T08:01:06.859Z,32.51
2022-11-19T08:02:06.877Z,32.51
2022-11-19T08:03:06.823Z,28.39
2022-11-19T08:04:06.815Z,32.29
2022-11-19T08:05:06.804Z,31.97
2022-11-19T08:06:06.822Z,31.56
2022-11-19T08:07:06.868Z,30.91
2022-11-19T08:08:06.775Z,31.65
2022-11-19T08:09:06.760Z,32.50
2022-11-19T08:10:06.751Z,25.53
2022-11-19T08:11:06.737Z,28.90
2022-11-19T08:12:06.730Z,30.80
2022-11-19T08:13:06.734Z,30.16
2022-11-19T08:14:06.707Z,31.41
2022-11-19T08:15:06.697Z,32.06
2022-11-19T08:16:06.685Z,31.43
2022-11-19T08:17:06.673Z,32.90
2022-11-19T08:18:06.667Z,37.55
2022-11-19T08:19:06.655Z,33.01
2022-11-19T08:20:06.679Z,34.17
2022-11-19T08:21:06.633Z,32.48
2022-11-19T08:22:06.647Z,34.80
2022-11-19T08:23:06.610Z,33.96
2022-11-19T08:24:06.604Z,34.80
2022-11-19T08:25:06.591Z,32.70
2022-11-19T08:26:06.586Z,35.12
2022-11-19T08:27:06.565Z,32.90
2022-11-19T08:28:06.560Z,32.47
2022-11-19T08:29:09.433Z,32.38
2022-11-19T08:30:06.533Z,32.79
2022-11-19T08:31:06.525Z,32.05
2022-11-19T08:32:06.663Z,29.83
2022-11-19T08:33:06.505Z,31.29
2022-11-19T08:34:06.493Z,31.82
2022-11-19T08:35:06.482Z,30.35
2022-11-19T08:36:06.472Z,30.03
2022-11-19T08:37:06.462Z,29.91
2022-11-19T08:38:06.490Z,30.76
2022-11-19T08:39:06.462Z,29.17
2022-11-19T08:40:06.428Z,28.65
2022-11-19T08:41:06.416Z,29.06
2022-11-19T08:42:06.408Z,30.32
2022-11-19T08:43:06.397Z,29.99
2022-11-19T08:44:06.386Z,30.30
2022-11-19T08:45:06.378Z,30.52
2022-11-19T08:46:06.364Z,31.13
2022-11-19T08:47:06.352Z,31.98
2022-11-19T08:48:06.346Z,34.29
2022-11-19T08:49:06.347Z,34.29
2022-11-19T08:50:06.340Z,34.29
2022-11-19T08:51:06.311Z,36.58
2022-11-19T08:52:06.299Z,37.32
2022-11-19T08:53:06.289Z,37.43
2022-11-19T08:54:06.311Z,42.79
2022-11-19T08:55:06.275Z,45.95
2022-11-19T08:56:06.259Z,45.75
2022-11-19T08:57:06.249Z,45.21
2022-11-19T08:58:06.240Z,47.20
2022-11-19T08:59:06.223Z,47.84
2022-11-19T09:00:06.756Z,47.42
2022-11-19T09:01:06.264Z,49.60
2022-11-19T09:02:06.193Z,55.49
2022-11-19T09:03:06.186Z,62.21
2022-11-19T09:04:06.181Z,64.60
2022-11-19T09:05:08.641Z,66.81
2022-11-19T09:06:06.157Z,68.01
2022-11-19T09:07:06.177Z,73.05
2022-11-19T09:08:06.128Z,72.29
2022-11-19T09:09:06.116Z,80.72
2022-11-19T09:10:06.185Z,93.65
2022-11-19T09:11:06.107Z,99.99
2022-11-19T09:12:06.089Z,99.99
2022-11-19T09:13:06.078Z,99.99
2022-11-19T09:14:06.062Z,99.99
2022-11-19T09:15:06.049Z,99.99
2022-11-19T09:16:06.041Z,99.99
2022-11-19T09:17:06.032Z,99.99
2022-11-19T09:18:06.018Z,99.99
2022-11-19T09:19:06.009Z,99.99
2022-11-19T09:20:05.996Z,99.99
2022-11-19T09:21:06.034Z,99.99
2022-11-19T09:22:05.984Z,99.99
2022-11-19T09:23:05.962Z,99.99
2022-11-19T09:24:05.958Z,99.17
2022-11-19T09:25:05.944Z,97.67
2022-11-19T09:26:05.967Z,88.36
2022-11-19T09:27:05.938Z,90.19
2022-11-19T09:28:05.910Z,89.11
2022-11-19T09:29:05.895Z,82.31
2022-11-19T09:30:05.886Z,78.97
2022-11-19T09:31:05.873Z,79.66
2022-11-19T09:32:05.878Z,69.96
2022-11-19T09:33:05.879Z,66.35
2022-11-19T09:34:05.849Z,69.54
2022-11-19T09:35:05.831Z,69.41
2022-11-19T09:36:05.832Z,69.38
2022-11-19T09:37:05.829Z,61.57
2022-11-19T09:38:05.802Z,63.95
2022-11-19T09:39:05.790Z,64.43
2022-11-19T09:40:05.782Z,65.64
2022-11-19T09:41:05.763Z,64.81
2022-11-19T09:42:05.800Z,61.78
2022-11-19T09:43:05.741Z,60.28
2022-11-19T09:44:05.769Z,63.37
2022-11-19T09:45:05.722Z,68.77
2022-11-19T09:46:05.712Z,68.36
2022-11-19T09:47:05.696Z,66.18
2022-11-19T09:48:05.688Z,68.93
2022-11-19T09:49:05.674Z,72.01
2022-11-19T09:50:05.666Z,69.29
2022-11-19T09:51:06.115Z,67.73
2022-11-19T09:52:05.802Z,67.73
2022-11-19T09:53:05.634Z,68.29
2022-11-19T09:54:05.651Z,66.36
2022-11-19T09:55:05.655Z,66.16
2022-11-19T09:56:05.601Z,68.71
2022-11-19T09:57:05.587Z,69.64
2022-11-19T09:58:05.600Z,68.48
2022-11-19T09:59:05.571Z,66.82
2022-11-19T10:00:05.559Z,67.38
2022-11-19T10:01:05.559Z,63.95
2022-11-19T10:02:05.536Z,64.84
2022-11-19T10:03:05.581Z,63.27
2022-11-19T10:04:05.541Z,60.51
2022-11-19T10:05:05.558Z,60.00
2022-11-19T10:06:05.491Z,59.23
2022-11-19T10:07:05.495Z,61.26
2022-11-19T10:08:05.466Z,61.05
2022-11-19T10:09:05.454Z,60.88
2022-11-19T10:10:11.921Z,63.43
2022-11-19T10:11:05.436Z,64.62
2022-11-19T10:12:05.422Z,64.30
2022-11-19T10:13:05.412Z,67.70
2022-11-19T10:14:05.697Z,70.70
2022-11-19T10:15:05.413Z,73.18
2022-11-19T10:16:05.378Z,78.23
2022-11-19T10:17:05.368Z,83.30
2022-11-19T10:18:05.366Z,86.98
2022-11-19T10:19:05.375Z,91.81
2022-11-19T10:20:05.332Z,92.68
2022-11-19T10:21:05.324Z,98.10
2022-11-19T10:22:05.311Z,98.72
2022-11-19T10:23:05.298Z,99.99
2022-11-19T10:24:05.289Z,99.99
2022-11-19T10:25:05.313Z,99.99
2022-11-19T10:26:05.288Z,99.99
2022-11-19T10:27:08.635Z,99.99
2022-11-19T10:28:05.248Z,99.99
2022-11-19T10:29:05.239Z,99.99
2022-11-19T10:30:05.253Z,99.99
2022-11-19T10:31:05.218Z,99.99
2022-11-19T10:32:05.206Z,99.99
2022-11-19T10:33:05.196Z,99.99
2022-11-19T10:34:05.197Z,99.99
2022-11-19T10:35:05.171Z,99.99
2022-11-19T10:36:05.157Z,99.99
2022-11-19T10:37:05.146Z,99.99
2022-11-19T10:38:05.135Z,99.99
2022-11-19T10:39:05.122Z,99.99
2022-11-19T10:40:05.114Z,99.99
2022-11-19T10:41:05.109Z,99.99
2022-11-19T10:42:05.091Z,99.99
2022-11-19T10:43:05.079Z,99.99
2022-11-19T10:44:05.068Z,99.99
2022-11-19T10:45:05.259Z,99.99
2022-11-19T10:46:05.098Z,99.99
2022-11-19T10:47:05.247Z,99.99
2022-11-19T10:48:09.198Z,99.99
2022-11-19T10:49:05.020Z,99.99
2022-11-19T10:50:10.998Z,99.99
2022-11-19T10:51:06.045Z,99.99
2022-11-19T10:52:04.983Z,99.99
2022-11-19T10:53:04.973Z,99.99
2022-11-19T10:54:04.960Z,99.99
2022-11-19T10:55:04.952Z,99.99
2022-11-19T10:56:04.945Z,99.99
2022-11-19T10:57:04.943Z,99.99
2022-11-19T10:58:04.915Z,99.99
2022-11-19T10:59:04.902Z,99.99
2022-11-19T11:00:04.896Z,99.99
2022-11-19T11:01:04.976Z,99.99
2022-11-19T11:02:04.898Z,99.99
2022-11-19T11:03:04.866Z,99.99
2022-11-19T11:04:04.850Z,99.99
2022-11-19T11:05:04.840Z,99.99
2022-11-19T11:06:04.828Z,99.99
2022-11-19T11:07:04.868Z,99.99
2022-11-19T11:08:04.819Z,99.99
2022-11-19T11:09:04.820Z,99.99
2022-11-19T11:10:04.784Z,99.99
2022-11-19T11:11:05.101Z,99.99
2022-11-19T11:12:04.764Z,99.99
2022-11-19T11:13:04.752Z,99.99
2022-11-19T11:14:04.738Z,99.99
2022-11-19T11:15:04.728Z,99.99
2022-11-19T11:16:04.716Z,99.99
2022-11-19T11:17:04.704Z,99.99
2022-11-19T11:18:04.721Z,99.99
2022-11-19T11:19:04.681Z,99.99
2022-11-19T11:20:04.669Z,99.99
2022-11-19T11:21:04.685Z,99.99
2022-11-19T11:22:04.679Z,99.99
2022-11-19T11:23:04.638Z,99.99
2022-11-19T11:24:04.643Z,99.99
2022-11-19T11:25:07.464Z,99.99
2022-11-19T11:26:04.604Z,99.99
2022-11-19T11:27:04.623Z,99.99
2022-11-19T11:28:04.584Z,99.99
2022-11-19T11:29:04.578Z,99.99
2022-11-19T11:30:04.563Z,99.99
2022-11-19T11:31:04.587Z,99.99
2022-11-19T11:32:04.566Z,99.99
2022-11-19T11:33:08.781Z,99.99
2022-11-19T11:34:04.543Z,99.99
2022-11-19T11:35:08.240Z,99.99
2022-11-19T11:36:04.492Z,99.99
2022-11-19T11:37:04.489Z,99.99
2022-11-19T11:38:04.483Z,99.99
2022-11-19T11:39:04.461Z,99.99
2022-11-19T11:40:04.451Z,99.99
2022-11-19T11:41:44.015Z,99.99
2022-11-19T11:42:07.044Z,99.99
2022-11-19T11:43:04.439Z,99.99
2022-11-19T11:44:04.431Z,99.99
2022-11-19T11:45:04.396Z,99.99
2022-11-19T11:46:04.382Z,99.99
2022-11-19T11:47:04.374Z,99.99
2022-11-19T11:48:04.359Z,99.99
2022-11-19T11:49:09.706Z,99.99
2022-11-19T11:50:04.363Z,99.99
2022-11-19T11:51:04.330Z,99.99
2022-11-19T11:52:04.318Z,99.99
2022-11-19T11:53:04.308Z,99.99
2022-11-19T11:54:04.297Z,99.99
2022-11-19T11:55:04.294Z,99.99
2022-11-19T11:56:04.324Z,99.99
2022-11-19T11:57:04.274Z,99.99
2022-11-19T11:58:04.253Z,99.99
2022-11-19T11:59:04.243Z,99.99
2022-11-19T12:00:04.230Z,99.99
2022-11-19T12:01:04.221Z,99.99
2022-11-19T12:02:04.256Z,99.99
2022-11-19T12:03:04.213Z,99.99
2022-11-19T12:04:04.188Z,99.99
2022-11-19T12:05:04.177Z,99.99
2022-11-19T12:06:04.187Z,99.99
2022-11-19T12:07:04.225Z,99.99
2022-11-19T12:08:04.156Z,99.99
2022-11-19T12:09:04.132Z,99.99
2022-11-19T12:10:04.120Z,99.99
2022-11-19T12:11:04.112Z,99.99
2022-11-19T12:12:04.107Z,99.99
2022-11-19T12:13:04.091Z,99.99
2022-11-19T12:14:09.579Z,99.99
2022-11-19T12:15:05.105Z,99.99
2022-11-19T12:16:04.069Z,99.99
2022-11-19T12:17:04.051Z,99.99
2022-11-19T12:18:04.033Z,99.99
2022-11-19T12:19:04.024Z,99.99
2022-11-19T12:20:04.012Z,99.99
2022-11-19T12:21:06.260Z,99.99
2022-11-19T12:22:04.011Z,99.99
2022-11-19T12:23:03.982Z,99.99
2022-11-19T12:24:03.992Z,99.99
2022-11-19T12:25:03.975Z,99.99
2022-11-19T12:26:03.966Z,99.99
2022-11-19T12:27:03.978Z,99.99
2022-11-19T12:28:03.959Z,99.99
2022-11-19T12:29:03.954Z,99.99
2022-11-19T12:30:03.915Z,99.99
2022-11-19T12:31:03.901Z,99.99
2022-11-19T12:32:03.898Z,99.99
2022-11-19T12:33:03.881Z,99.99
2022-11-19T12:34:03.857Z,99.99
2022-11-19T12:35:03.852Z,99.99
2022-11-19T12:36:03.840Z,99.99
2022-11-19T12:37:03.830Z,99.99
2022-11-19T12:38:03.844Z,99.99
2022-11-19T12:39:03.809Z,99.99
2022-11-19T12:40:03.795Z,99.99
2022-11-19T12:41:03.792Z,99.99
2022-11-19T12:42:03.772Z,99.99
2022-11-19T12:43:03.801Z,99.99
2022-11-19T12:44:03.752Z,99.99
2022-11-19T12:45:03.752Z,99.99
2022-11-19T12:46:03.731Z,99.99
2022-11-19T12:47:03.720Z,99.99
2022-11-19T12:48:03.710Z,99.99
2022-11-19T12:49:03.699Z,99.99
2022-11-19T12:50:03.685Z,99.99
2022-11-19T12:51:03.675Z,99.99
2022-11-19T12:52:03.662Z,99.99
2022-11-19T12:53:03.653Z,99.99
2022-11-19T12:54:03.966Z,99.99
2022-11-19T12:55:03.635Z,99.99
2022-11-19T12:56:03.622Z,99.99
2022-11-19T12:57:03.611Z,99.99
2022-11-19T12:58:03.621Z,99.99
2022-11-19T12:59:03.592Z,99.99
2022-11-19T13:00:03.578Z,99.99